sensor_id;sensor_type;location;lat;lon;timestamp;temperature;humidity
52016;DHT22;38032;53.326;6.472;2022-07-12T00:01:04;16.60;99.90
52016;DHT22;38032;53.326;6.472;2022-07-12T00:03:30;16.60;99.90
52016;DHT22;38032;53.326;6.472;2022-07-12T00:05:56;16.50;99.90
52016;DHT22;38032;53.326;6.472;2022-07-12T00:08:23;16.50;99.90
52016;DHT22;38032;53.326;6.472;2022-07-12T00:10:49;16.50;99.90
52016;DHT22;38032;53.326;6.472;2022-07-12T00:13:14;16.50;99.90
52016;DHT22;38032;53.326;6.472;2022-07-12T00:15:42;16.50;99.90
52016;DHT22;38032;53.326;6.472;2022-07-12T00:18:09;16.50;99.90
52016;DHT22;38032;53.326;6.472;2022-07-12T00:20:36;16.50;99.90
52016;DHT22;38032;53.326;6.472;2022-07-12T00:23:03;16.50;99.90
52016;DHT22;38032;53.326;6.472;2022-07-12T00:25:29;16.50;99.90
52016;DHT22;38032;53.326;6.472;2022-07-12T00:27:55;16.50;99.90
52016;DHT22;38032;53.326;6.472;2022-07-12T00:30:21;16.50;99.90
52016;DHT22;38032;53.326;6.472;2022-07-12T00:32:48;16.50;99.90
52016;DHT22;38032;53.326;6.472;2022-07-12T00:35:14;16.50;99.90
52016;DHT22;38032;53.326;6.472;2022-07-12T00:37:40;16.50;99.90
52016;DHT22;38032;53.326;6.472;2022-07-12T00:40:08;16.50;99.90
52016;DHT22;38032;53.326;6.472;2022-07-12T00:42:35;16.50;99.90
52016;DHT22;38032;53.326;6.472;2022-07-12T00:45:03;16.50;99.90
52016;DHT22;38032;53.326;6.472;2022-07-12T00:47:34;16.40;99.90
52016;DHT22;38032;53.326;6.472;2022-07-12T00:50:11;16.40;99.90
52016;DHT22;38032;53.326;6.472;2022-07-12T00:52:37;16.40;99.90
52016;DHT22;38032;53.326;6.472;2022-07-12T00:55:04;16.40;99.90
52016;DHT22;38032;53.326;6.472;2022-07-12T00:57:32;16.40;99.90
52016;DHT22;38032;53.326;6.472;2022-07-12T00:59:58;16.40;99.90
52016;DHT22;38032;53.326;6.472;2022-07-12T01:02:24;16.40;99.90
52016;DHT22;38032;53.326;6.472;2022-07-12T01:04:51;16.40;99.90
52016;DHT22;38032;53.326;6.472;2022-07-12T01:07:17;16.40;99.90
52016;DHT22;38032;53.326;6.472;2022-07-12T01:09:43;16.40;99.90
52016;DHT22;38032;53.326;6.472;2022-07-12T01:12:09;16.40;99.90
52016;DHT22;38032;53.326;6.472;2022-07-12T01:14:37;16.40;99.90
52016;DHT22;38032;53.326;6.472;2022-07-12T01:17:03;16.40;99.90
52016;DHT22;38032;53.326;6.472;2022-07-12T01:19:30;16.40;99.90
52016;DHT22;38032;53.326;6.472;2022-07-12T01:21:57;16.40;99.90
52016;DHT22;38032;53.326;6.472;2022-07-12T01:24:24;17.10;99.90
52016;DHT22;38032;53.326;6.472;2022-07-12T01:26:50;16.30;99.90
52016;DHT22;38032;53.326;6.472;2022-07-12T01:29:16;16.30;99.90
52016;DHT22;38032;53.326;6.472;2022-07-12T01:31:43;16.30;99.90
52016;DHT22;38032;53.326;6.472;2022-07-12T01:34:09;16.30;99.90
52016;DHT22;38032;53.326;6.472;2022-07-12T01:36:35;16.30;99.90
52016;DHT22;38032;53.326;6.472;2022-07-12T01:39:04;16.20;99.90
52016;DHT22;38032;53.326;6.472;2022-07-12T01:41:31;16.30;99.90
52016;DHT22;38032;53.326;6.472;2022-07-12T01:43:58;16.30;99.90
52016;DHT22;38032;53.326;6.472;2022-07-12T01:46:24;16.30;99.90
52016;DHT22;38032;53.326;6.472;2022-07-12T01:48:50;16.20;99.90
52016;DHT22;38032;53.326;6.472;2022-07-12T01:51:16;16.20;99.90
52016;DHT22;38032;53.326;6.472;2022-07-12T01:53:42;16.20;99.90
52016;DHT22;38032;53.326;6.472;2022-07-12T01:56:08;16.20;99.90
52016;DHT22;38032;53.326;6.472;2022-07-12T01:58:34;16.20;99.90
52016;DHT22;38032;53.326;6.472;2022-07-12T02:01:00;16.30;99.90
52016;DHT22;38032;53.326;6.472;2022-07-12T02:03:26;16.20;99.90
52016;DHT22;38032;53.326;6.472;2022-07-12T02:05:52;16.20;99.90
52016;DHT22;38032;53.326;6.472;2022-07-12T02:08:18;16.20;99.90
52016;DHT22;38032;53.326;6.472;2022-07-12T02:10:44;16.20;99.90
52016;DHT22;38032;53.326;6.472;2022-07-12T02:13:10;16.30;99.90
52016;DHT22;38032;53.326;6.472;2022-07-12T02:15:36;16.20;99.90
52016;DHT22;38032;53.326;6.472;2022-07-12T02:18:01;16.20;99.90
52016;DHT22;38032;53.326;6.472;2022-07-12T02:20:27;16.30;99.90
52016;DHT22;38032;53.326;6.472;2022-07-12T02:22:53;16.30;99.90
52016;DHT22;38032;53.326;6.472;2022-07-12T02:25:19;16.30;99.90
52016;DHT22;38032;53.326;6.472;2022-07-12T02:27:45;16.30;99.90
52016;DHT22;38032;53.326;6.472;2022-07-12T02:30:11;16.30;99.90
52016;DHT22;38032;53.326;6.472;2022-07-12T02:32:38;16.20;99.90
52016;DHT22;38032;53.326;6.472;2022-07-12T02:35:05;16.20;99.90
52016;DHT22;38032;53.326;6.472;2022-07-12T02:37:31;16.20;99.90
52016;DHT22;38032;53.326;6.472;2022-07-12T02:39:57;16.20;99.90
52016;DHT22;38032;53.326;6.472;2022-07-12T02:42:42;16.20;99.90
52016;DHT22;38032;53.326;6.472;2022-07-12T02:45:09;16.20;99.90
52016;DHT22;38032;53.326;6.472;2022-07-12T02:47:38;16.10;99.90
52016;DHT22;38032;53.326;6.472;2022-07-12T02:50:05;16.20;99.90
52016;DHT22;38032;53.326;6.472;2022-07-12T02:52:32;16.20;99.90
52016;DHT22;38032;53.326;6.472;2022-07-12T02:54:58;16.10;99.90
52016;DHT22;38032;53.326;6.472;2022-07-12T02:57:24;16.20;99.90
52016;DHT22;38032;53.326;6.472;2022-07-12T02:59:50;16.20;99.90
52016;DHT22;38032;53.326;6.472;2022-07-12T03:02:16;16.10;99.90
52016;DHT22;38032;53.326;6.472;2022-07-12T03:04:42;16.10;99.90
52016;DHT22;38032;53.326;6.472;2022-07-12T03:07:07;16.20;99.90
52016;DHT22;38032;53.326;6.472;2022-07-12T03:09:33;16.10;99.90
52016;DHT22;38032;53.326;6.472;2022-07-12T03:12:00;16.20;99.90
52016;DHT22;38032;53.326;6.472;2022-07-12T03:14:26;16.10;99.90
52016;DHT22;38032;53.326;6.472;2022-07-12T03:16:52;16.10;99.90
52016;DHT22;38032;53.326;6.472;2022-07-12T03:19:18;16.10;99.90
52016;DHT22;38032;53.326;6.472;2022-07-12T03:21:44;16.10;99.90
52016;DHT22;38032;53.326;6.472;2022-07-12T03:24:10;16.10;99.90
52016;DHT22;38032;53.326;6.472;2022-07-12T03:26:36;16.10;99.90
52016;DHT22;38032;53.326;6.472;2022-07-12T03:29:02;16.10;99.90
52016;DHT22;38032;53.326;6.472;2022-07-12T03:31:28;16.20;99.90
52016;DHT22;38032;53.326;6.472;2022-07-12T03:33:54;16.10;99.90
52016;DHT22;38032;53.326;6.472;2022-07-12T03:36:20;16.10;99.90
52016;DHT22;38032;53.326;6.472;2022-07-12T03:38:45;16.10;99.90
52016;DHT22;38032;53.326;6.472;2022-07-12T03:41:12;16.10;99.90
52016;DHT22;38032;53.326;6.472;2022-07-12T03:43:38;16.10;99.90
52016;DHT22;38032;53.326;6.472;2022-07-12T03:46:04;16.10;99.90
52016;DHT22;38032;53.326;6.472;2022-07-12T03:48:29;16.10;99.90
52016;DHT22;38032;53.326;6.472;2022-07-12T03:50:55;16.20;99.90
52016;DHT22;38032;53.326;6.472;2022-07-12T03:53:21;16.10;99.90
52016;DHT22;38032;53.326;6.472;2022-07-12T03:55:47;16.10;99.90
52016;DHT22;38032;53.326;6.472;2022-07-12T03:58:13;16.10;99.90
52016;DHT22;38032;53.326;6.472;2022-07-12T04:00:39;16.10;99.90
52016;DHT22;38032;53.326;6.472;2022-07-12T04:03:09;16.20;99.90
52016;DHT22;38032;53.326;6.472;2022-07-12T04:05:37;16.20;99.90
52016;DHT22;38032;53.326;6.472;2022-07-12T04:08:03;16.20;99.90
52016;DHT22;38032;53.326;6.472;2022-07-12T04:10:29;16.10;99.90
52016;DHT22;38032;53.326;6.472;2022-07-12T04:12:55;16.20;99.90
52016;DHT22;38032;53.326;6.472;2022-07-12T04:15:21;16.20;99.90
52016;DHT22;38032;53.326;6.472;2022-07-12T04:17:47;16.10;99.90
52016;DHT22;38032;53.326;6.472;2022-07-12T04:20:13;16.10;99.90
52016;DHT22;38032;53.326;6.472;2022-07-12T04:22:38;16.20;99.90
52016;DHT22;38032;53.326;6.472;2022-07-12T04:25:06;16.20;99.90
52016;DHT22;38032;53.326;6.472;2022-07-12T04:27:33;16.20;99.90
52016;DHT22;38032;53.326;6.472;2022-07-12T04:29:59;16.20;99.90
52016;DHT22;38032;53.326;6.472;2022-07-12T04:32:24;16.20;99.90
52016;DHT22;38032;53.326;6.472;2022-07-12T04:34:50;16.20;99.90
52016;DHT22;38032;53.326;6.472;2022-07-12T04:37:16;16.20;99.90
52016;DHT22;38032;53.326;6.472;2022-07-12T04:39:42;16.20;99.90
52016;DHT22;38032;53.326;6.472;2022-07-12T04:42:08;16.20;99.90
52016;DHT22;38032;53.326;6.472;2022-07-12T04:44:34;16.20;99.90
52016;DHT22;38032;53.326;6.472;2022-07-12T04:47:00;16.20;99.90
52016;DHT22;38032;53.326;6.472;2022-07-12T04:49:26;16.20;99.90
52016;DHT22;38032;53.326;6.472;2022-07-12T04:51:51;16.20;99.90
52016;DHT22;38032;53.326;6.472;2022-07-12T04:54:17;16.20;99.90
52016;DHT22;38032;53.326;6.472;2022-07-12T04:56:43;16.20;99.90
52016;DHT22;38032;53.326;6.472;2022-07-12T04:59:09;16.20;99.90
52016;DHT22;38032;53.326;6.472;2022-07-12T05:01:34;16.20;99.90
52016;DHT22;38032;53.326;6.472;2022-07-12T05:04:00;16.20;99.90
52016;DHT22;38032;53.326;6.472;2022-07-12T05:06:26;16.10;99.90
52016;DHT22;38032;53.326;6.472;2022-07-12T05:08:52;16.20;99.90
52016;DHT22;38032;53.326;6.472;2022-07-12T05:11:18;16.20;99.90
52016;DHT22;38032;53.326;6.472;2022-07-12T05:13:44;16.30;99.90
52016;DHT22;38032;53.326;6.472;2022-07-12T05:16:10;16.20;99.90
52016;DHT22;38032;53.326;6.472;2022-07-12T05:18:35;16.20;99.90
52016;DHT22;38032;53.326;6.472;2022-07-12T05:21:01;16.30;99.90
52016;DHT22;38032;53.326;6.472;2022-07-12T05:23:27;16.30;99.90
52016;DHT22;38032;53.326;6.472;2022-07-12T05:25:53;16.30;99.90
52016;DHT22;38032;53.326;6.472;2022-07-12T05:28:19;16.40;99.90
52016;DHT22;38032;53.326;6.472;2022-07-12T05:30:45;16.40;99.90
52016;DHT22;38032;53.326;6.472;2022-07-12T05:33:10;16.40;99.90
52016;DHT22;38032;53.326;6.472;2022-07-12T05:35:38;16.40;99.90
52016;DHT22;38032;53.326;6.472;2022-07-12T05:38:03;16.50;99.90
52016;DHT22;38032;53.326;6.472;2022-07-12T05:40:29;16.50;99.90
52016;DHT22;38032;53.326;6.472;2022-07-12T05:42:55;16.50;99.90
52016;DHT22;38032;53.326;6.472;2022-07-12T05:45:21;16.50;99.90
52016;DHT22;38032;53.326;6.472;2022-07-12T05:47:48;16.50;99.90
52016;DHT22;38032;53.326;6.472;2022-07-12T05:50:14;16.60;99.90
52016;DHT22;38032;53.326;6.472;2022-07-12T05:52:40;16.60;99.90
52016;DHT22;38032;53.326;6.472;2022-07-12T05:55:24;16.60;99.90
52016;DHT22;38032;53.326;6.472;2022-07-12T05:57:50;16.70;99.90
52016;DHT22;38032;53.326;6.472;2022-07-12T06:00:15;16.70;99.90
52016;DHT22;38032;53.326;6.472;2022-07-12T06:02:41;16.80;99.90
52016;DHT22;38032;53.326;6.472;2022-07-12T06:05:07;16.90;99.90
52016;DHT22;38032;53.326;6.472;2022-07-12T06:07:33;16.80;99.90
52016;DHT22;38032;53.326;6.472;2022-07-12T06:10:00;16.90;99.90
52016;DHT22;38032;53.326;6.472;2022-07-12T06:12:25;17.00;99.90
52016;DHT22;38032;53.326;6.472;2022-07-12T06:14:51;17.00;99.90
52016;DHT22;38032;53.326;6.472;2022-07-12T06:17:17;17.00;99.90
52016;DHT22;38032;53.326;6.472;2022-07-12T06:19:47;17.10;99.90
52016;DHT22;38032;53.326;6.472;2022-07-12T06:22:13;17.10;99.90
52016;DHT22;38032;53.326;6.472;2022-07-12T06:24:39;17.20;99.90
52016;DHT22;38032;53.326;6.472;2022-07-12T06:27:05;17.20;99.90
52016;DHT22;38032;53.326;6.472;2022-07-12T06:29:30;17.20;99.90
52016;DHT22;38032;53.326;6.472;2022-07-12T06:31:56;17.30;99.90
52016;DHT22;38032;53.326;6.472;2022-07-12T06:34:22;17.30;99.90
52016;DHT22;38032;53.326;6.472;2022-07-12T06:36:48;17.30;99.90
52016;DHT22;38032;53.326;6.472;2022-07-12T06:39:14;17.40;99.90
52016;DHT22;38032;53.326;6.472;2022-07-12T06:41:39;17.50;99.90
52016;DHT22;38032;53.326;6.472;2022-07-12T06:44:05;17.50;99.90
52016;DHT22;38032;53.326;6.472;2022-07-12T06:46:31;17.60;99.90
52016;DHT22;38032;53.326;6.472;2022-07-12T06:48:57;17.70;99.90
52016;DHT22;38032;53.326;6.472;2022-07-12T06:51:22;17.80;99.90
52016;DHT22;38032;53.326;6.472;2022-07-12T06:53:48;17.90;99.90
52016;DHT22;38032;53.326;6.472;2022-07-12T06:56:14;18.00;99.90
52016;DHT22;38032;53.326;6.472;2022-07-12T06:58:40;18.10;99.90
52016;DHT22;38032;53.326;6.472;2022-07-12T07:01:06;18.20;99.90
52016;DHT22;38032;53.326;6.472;2022-07-12T07:03:32;18.20;99.90
52016;DHT22;38032;53.326;6.472;2022-07-12T07:05:58;18.30;99.90
52016;DHT22;38032;53.326;6.472;2022-07-12T07:08:23;18.40;99.90
52016;DHT22;38032;53.326;6.472;2022-07-12T07:10:51;18.50;99.90
52016;DHT22;38032;53.326;6.472;2022-07-12T07:13:17;18.60;99.90
52016;DHT22;38032;53.326;6.472;2022-07-12T07:15:43;18.60;99.90
52016;DHT22;38032;53.326;6.472;2022-07-12T07:18:09;18.70;99.90
52016;DHT22;38032;53.326;6.472;2022-07-12T07:20:35;18.80;99.90
52016;DHT22;38032;53.326;6.472;2022-07-12T07:23:01;19.00;99.90
52016;DHT22;38032;53.326;6.472;2022-07-12T07:25:26;19.10;99.90
52016;DHT22;38032;53.326;6.472;2022-07-12T07:27:52;19.20;99.90
52016;DHT22;38032;53.326;6.472;2022-07-12T07:30:18;19.30;99.90
52016;DHT22;38032;53.326;6.472;2022-07-12T07:33:02;19.40;99.90
52016;DHT22;38032;53.326;6.472;2022-07-12T07:35:28;19.50;99.90
52016;DHT22;38032;53.326;6.472;2022-07-12T07:37:55;19.60;99.90
52016;DHT22;38032;53.326;6.472;2022-07-12T07:40:20;19.80;99.90
52016;DHT22;38032;53.326;6.472;2022-07-12T07:42:46;19.90;99.90
52016;DHT22;38032;53.326;6.472;2022-07-12T07:45:12;20.00;99.90
52016;DHT22;38032;53.326;6.472;2022-07-12T07:47:44;20.10;99.90
52016;DHT22;38032;53.326;6.472;2022-07-12T07:50:10;20.30;99.90
52016;DHT22;38032;53.326;6.472;2022-07-12T07:52:36;20.40;99.90
52016;DHT22;38032;53.326;6.472;2022-07-12T07:55:02;18.90;99.90
52016;DHT22;38032;53.326;6.472;2022-07-12T07:57:29;20.60;99.90
52016;DHT22;38032;53.326;6.472;2022-07-12T07:59:55;20.80;99.90
52016;DHT22;38032;53.326;6.472;2022-07-12T08:02:21;20.90;99.90
52016;DHT22;38032;53.326;6.472;2022-07-12T08:04:47;21.10;99.90
52016;DHT22;38032;53.326;6.472;2022-07-12T08:07:12;21.20;99.90
52016;DHT22;38032;53.326;6.472;2022-07-12T08:09:39;21.30;99.90
52016;DHT22;38032;53.326;6.472;2022-07-12T08:12:05;21.40;99.90
52016;DHT22;38032;53.326;6.472;2022-07-12T08:14:31;21.60;99.90
52016;DHT22;38032;53.326;6.472;2022-07-12T08:16:57;21.70;99.90
52016;DHT22;38032;53.326;6.472;2022-07-12T08:19:23;21.80;99.90
52016;DHT22;38032;53.326;6.472;2022-07-12T08:21:49;21.90;99.90
52016;DHT22;38032;53.326;6.472;2022-07-12T08:24:15;21.90;99.90
52016;DHT22;38032;53.326;6.472;2022-07-12T08:26:40;22.00;99.90
52016;DHT22;38032;53.326;6.472;2022-07-12T08:29:06;22.10;99.90
52016;DHT22;38032;53.326;6.472;2022-07-12T08:31:32;22.10;99.90
52016;DHT22;38032;53.326;6.472;2022-07-12T08:33:58;22.20;99.90
52016;DHT22;38032;53.326;6.472;2022-07-12T08:36:23;22.30;99.90
52016;DHT22;38032;53.326;6.472;2022-07-12T08:38:49;22.30;99.90
52016;DHT22;38032;53.326;6.472;2022-07-12T08:41:15;22.40;99.90
52016;DHT22;38032;53.326;6.472;2022-07-12T08:43:41;22.50;99.90
52016;DHT22;38032;53.326;6.472;2022-07-12T08:46:09;22.60;99.90
52016;DHT22;38032;53.326;6.472;2022-07-12T08:48:36;22.70;99.90
52016;DHT22;38032;53.326;6.472;2022-07-12T08:51:07;22.80;99.90
52016;DHT22;38032;53.326;6.472;2022-07-12T08:53:34;22.80;99.90
52016;DHT22;38032;53.326;6.472;2022-07-12T08:56:02;22.90;99.90
52016;DHT22;38032;53.326;6.472;2022-07-12T08:58:29;23.10;99.90
52016;DHT22;38032;53.326;6.472;2022-07-12T09:00:55;23.20;99.90
52016;DHT22;38032;53.326;6.472;2022-07-12T09:03:21;23.30;99.90
52016;DHT22;38032;53.326;6.472;2022-07-12T09:05:50;23.40;99.90
52016;DHT22;38032;53.326;6.472;2022-07-12T09:08:17;23.60;99.90
52016;DHT22;38032;53.326;6.472;2022-07-12T09:13:17;23.80;99.90
52016;DHT22;38032;53.326;6.472;2022-07-12T09:15:43;24.00;99.90
52016;DHT22;38032;53.326;6.472;2022-07-12T09:18:09;24.20;99.90
52016;DHT22;38032;53.326;6.472;2022-07-12T09:20:50;24.40;99.90
52016;DHT22;38032;53.326;6.472;2022-07-12T09:23:16;24.50;99.90
52016;DHT22;38032;53.326;6.472;2022-07-12T09:25:45;24.70;99.90
52016;DHT22;38032;53.326;6.472;2022-07-12T09:28:11;24.80;99.90
52016;DHT22;38032;53.326;6.472;2022-07-12T09:30:47;24.90;99.90
52016;DHT22;38032;53.326;6.472;2022-07-12T09:33:17;24.90;99.90
52016;DHT22;38032;53.326;6.472;2022-07-12T09:36:02;25.00;99.90
52016;DHT22;38032;53.326;6.472;2022-07-12T09:38:37;25.20;99.90
52016;DHT22;38032;53.326;6.472;2022-07-12T09:41:05;25.40;99.90
52016;DHT22;38032;53.326;6.472;2022-07-12T09:43:31;25.70;99.90
52016;DHT22;38032;53.326;6.472;2022-07-12T09:45:58;26.00;99.90
52016;DHT22;38032;53.326;6.472;2022-07-12T09:48:26;26.50;99.90
52016;DHT22;38032;53.326;6.472;2022-07-12T09:50:55;27.40;99.90
52016;DHT22;38032;53.326;6.472;2022-07-12T09:53:27;28.50;99.90
52016;DHT22;38032;53.326;6.472;2022-07-12T09:55:53;29.50;99.90
52016;DHT22;38032;53.326;6.472;2022-07-12T09:58:31;30.10;99.90
52016;DHT22;38032;53.326;6.472;2022-07-12T10:00:59;30.90;98.60
52016;DHT22;38032;53.326;6.472;2022-07-12T10:03:28;31.40;94.40
52016;DHT22;38032;53.326;6.472;2022-07-12T10:06:00;31.50;93.20
52016;DHT22;38032;53.326;6.472;2022-07-12T10:08:26;31.70;91.50
52016;DHT22;38032;53.326;6.472;2022-07-12T10:10:52;31.90;90.60
52016;DHT22;38032;53.326;6.472;2022-07-12T10:13:19;32.30;88.10
52016;DHT22;38032;53.326;6.472;2022-07-12T10:15:47;32.50;83.10
52016;DHT22;38032;53.326;6.472;2022-07-12T10:18:20;32.20;82.60
52016;DHT22;38032;53.326;6.472;2022-07-12T10:20:48;32.10;83.40
52016;DHT22;38032;53.326;6.472;2022-07-12T10:23:29;32.10;81.00
52016;DHT22;38032;53.326;6.472;2022-07-12T10:25:56;32.40;83.70
52016;DHT22;38032;53.326;6.472;2022-07-12T10:28:23;32.90;78.70
52016;DHT22;38032;53.326;6.472;2022-07-12T10:31:04;33.30;76.80
52016;DHT22;38032;53.326;6.472;2022-07-12T10:33:32;33.70;76.00
52016;DHT22;38032;53.326;6.472;2022-07-12T10:36:01;34.00;71.60
52016;DHT22;38032;53.326;6.472;2022-07-12T10:38:27;34.20;68.90
52016;DHT22;38032;53.326;6.472;2022-07-12T10:40:54;34.20;69.00
52016;DHT22;38032;53.326;6.472;2022-07-12T10:43:21;34.30;66.40
52016;DHT22;38032;53.326;6.472;2022-07-12T10:45:48;34.30;66.90
52016;DHT22;38032;53.326;6.472;2022-07-12T10:48:18;34.30;65.60
52016;DHT22;38032;53.326;6.472;2022-07-12T10:53:31;34.30;65.00
52016;DHT22;38032;53.326;6.472;2022-07-12T10:58:34;34.40;69.40
52016;DHT22;38032;53.326;6.472;2022-07-12T11:01:10;34.50;67.10
52016;DHT22;38032;53.326;6.472;2022-07-12T11:03:39;34.60;66.30
52016;DHT22;38032;53.326;6.472;2022-07-12T11:06:09;34.70;64.20
52016;DHT22;38032;53.326;6.472;2022-07-12T11:11:14;34.50;66.00
52016;DHT22;38032;53.326;6.472;2022-07-12T11:13:40;34.30;64.20
52016;DHT22;38032;53.326;6.472;2022-07-12T11:16:06;34.10;63.20
52016;DHT22;38032;53.326;6.472;2022-07-12T11:18:37;33.90;62.60
52016;DHT22;38032;53.326;6.472;2022-07-12T11:21:04;33.70;63.40
52016;DHT22;38032;53.326;6.472;2022-07-12T11:23:30;33.40;62.70
52016;DHT22;38032;53.326;6.472;2022-07-12T11:25:59;33.20;62.10
52016;DHT22;38032;53.326;6.472;2022-07-12T11:28:27;33.10;62.20
52016;DHT22;38032;53.326;6.472;2022-07-12T11:31:00;33.00;62.30
52016;DHT22;38032;53.326;6.472;2022-07-12T11:33:28;32.80;63.50
52016;DHT22;38032;53.326;6.472;2022-07-12T11:35:59;32.70;64.20
52016;DHT22;38032;53.326;6.472;2022-07-12T11:38:25;32.60;64.50
52016;DHT22;38032;53.326;6.472;2022-07-12T11:40:58;32.50;64.50
52016;DHT22;38032;53.326;6.472;2022-07-12T11:43:25;32.40;64.90
52016;DHT22;38032;53.326;6.472;2022-07-12T11:45:52;32.40;64.40
52016;DHT22;38032;53.326;6.472;2022-07-12T11:48:19;32.40;63.50
52016;DHT22;38032;53.326;6.472;2022-07-12T11:50:45;32.30;64.40
52016;DHT22;38032;53.326;6.472;2022-07-12T11:53:19;32.30;63.90
52016;DHT22;38032;53.326;6.472;2022-07-12T11:55:47;32.20;64.00
52016;DHT22;38032;53.326;6.472;2022-07-12T11:58:14;32.20;67.00
52016;DHT22;38032;53.326;6.472;2022-07-12T12:00:40;32.10;64.80
52016;DHT22;38032;53.326;6.472;2022-07-12T12:03:07;32.10;64.60
52016;DHT22;38032;53.326;6.472;2022-07-12T12:05:34;32.10;64.60
52016;DHT22;38032;53.326;6.472;2022-07-12T12:08:00;32.00;64.80
52016;DHT22;38032;53.326;6.472;2022-07-12T12:10:27;32.00;64.30
52016;DHT22;38032;53.326;6.472;2022-07-12T12:12:56;31.90;64.50
52016;DHT22;38032;53.326;6.472;2022-07-12T12:15:24;31.80;66.00
52016;DHT22;38032;53.326;6.472;2022-07-12T12:17:52;31.70;66.30
52016;DHT22;38032;53.326;6.472;2022-07-12T12:20:20;31.60;65.90
52016;DHT22;38032;53.326;6.472;2022-07-12T12:22:48;31.60;66.30
52016;DHT22;38032;53.326;6.472;2022-07-12T12:25:15;31.50;66.10
52016;DHT22;38032;53.326;6.472;2022-07-12T12:27:45;31.50;66.10
52016;DHT22;38032;53.326;6.472;2022-07-12T12:30:12;31.40;66.00
52016;DHT22;38032;53.326;6.472;2022-07-12T12:35:12;31.20;67.80
52016;DHT22;38032;53.326;6.472;2022-07-12T12:37:38;31.20;68.00
52016;DHT22;38032;53.326;6.472;2022-07-12T12:40:04;31.20;68.40
52016;DHT22;38032;53.326;6.472;2022-07-12T12:42:30;31.10;67.70
52016;DHT22;38032;53.326;6.472;2022-07-12T12:44:56;31.10;67.70
52016;DHT22;38032;53.326;6.472;2022-07-12T12:47:22;31.10;67.90
52016;DHT22;38032;53.326;6.472;2022-07-12T12:49:57;31.10;68.40
52016;DHT22;38032;53.326;6.472;2022-07-12T12:52:24;31.00;68.70
52016;DHT22;38032;53.326;6.472;2022-07-12T12:54:50;30.90;68.90
52016;DHT22;38032;53.326;6.472;2022-07-12T12:57:16;30.80;68.80
52016;DHT22;38032;53.326;6.472;2022-07-12T12:59:42;30.80;70.00
52016;DHT22;38032;53.326;6.472;2022-07-12T13:02:08;30.80;70.00
52016;DHT22;38032;53.326;6.472;2022-07-12T13:04:35;30.80;71.30
52016;DHT22;38032;53.326;6.472;2022-07-12T13:07:02;30.80;70.80
52016;DHT22;38032;53.326;6.472;2022-07-12T13:09:29;30.80;71.00
52016;DHT22;38032;53.326;6.472;2022-07-12T13:11:56;30.80;70.60
52016;DHT22;38032;53.326;6.472;2022-07-12T13:14:22;30.70;70.60
52016;DHT22;38032;53.326;6.472;2022-07-12T13:16:47;30.60;70.70
52016;DHT22;38032;53.326;6.472;2022-07-12T13:19:14;30.60;70.90
52016;DHT22;38032;53.326;6.472;2022-07-12T13:21:40;30.60;71.00
52016;DHT22;38032;53.326;6.472;2022-07-12T13:24:06;30.50;70.30
52016;DHT22;38032;53.326;6.472;2022-07-12T13:26:32;30.40;70.50
52016;DHT22;38032;53.326;6.472;2022-07-12T13:28:58;30.40;70.60
52016;DHT22;38032;53.326;6.472;2022-07-12T13:31:23;30.30;70.00
52016;DHT22;38032;53.326;6.472;2022-07-12T13:33:53;30.20;69.50
52016;DHT22;38032;53.326;6.472;2022-07-12T13:36:20;30.10;69.30
52016;DHT22;38032;53.326;6.472;2022-07-12T13:38:47;30.00;67.90
52016;DHT22;38032;53.326;6.472;2022-07-12T13:41:13;30.00;67.90
52016;DHT22;38032;53.326;6.472;2022-07-12T13:43:39;29.90;68.20
52016;DHT22;38032;53.326;6.472;2022-07-12T13:46:05;29.90;68.50
52016;DHT22;38032;53.326;6.472;2022-07-12T13:48:31;29.80;69.00
52016;DHT22;38032;53.326;6.472;2022-07-12T13:50:57;29.70;69.30
52016;DHT22;38032;53.326;6.472;2022-07-12T13:53:22;29.70;69.90
52016;DHT22;38032;53.326;6.472;2022-07-12T13:55:48;29.60;69.90
52016;DHT22;38032;53.326;6.472;2022-07-12T13:58:14;29.60;71.00
52016;DHT22;38032;53.326;6.472;2022-07-12T14:00:41;29.60;71.40
52016;DHT22;38032;53.326;6.472;2022-07-12T14:03:07;29.60;71.80
52016;DHT22;38032;53.326;6.472;2022-07-12T14:05:34;29.60;71.40
52016;DHT22;38032;53.326;6.472;2022-07-12T14:08:00;29.50;71.10
52016;DHT22;38032;53.326;6.472;2022-07-12T14:10:26;29.50;70.20
52016;DHT22;38032;53.326;6.472;2022-07-12T14:12:52;29.50;69.50
52016;DHT22;38032;53.326;6.472;2022-07-12T14:15:18;29.40;68.60
52016;DHT22;38032;53.326;6.472;2022-07-12T14:18:02;29.40;68.10
52016;DHT22;38032;53.326;6.472;2022-07-12T14:20:30;29.20;67.70
52016;DHT22;38032;53.326;6.472;2022-07-12T14:22:56;29.20;67.60
52016;DHT22;38032;53.326;6.472;2022-07-12T14:25:21;29.20;67.90
52016;DHT22;38032;53.326;6.472;2022-07-12T14:27:47;29.10;68.40
52016;DHT22;38032;53.326;6.472;2022-07-12T14:30:14;29.00;67.70
52016;DHT22;38032;53.326;6.472;2022-07-12T14:32:40;29.00;68.50
52016;DHT22;38032;53.326;6.472;2022-07-12T14:35:07;28.90;69.80
52016;DHT22;38032;53.326;6.472;2022-07-12T14:37:34;28.90;70.80
52016;DHT22;38032;53.326;6.472;2022-07-12T14:40:01;28.90;71.00
52016;DHT22;38032;53.326;6.472;2022-07-12T14:42:27;28.90;70.70
52016;DHT22;38032;53.326;6.472;2022-07-12T14:44:52;28.80;71.70
52016;DHT22;38032;53.326;6.472;2022-07-12T14:47:18;28.80;71.70
52016;DHT22;38032;53.326;6.472;2022-07-12T14:49:44;28.80;72.10
52016;DHT22;38032;53.326;6.472;2022-07-12T14:52:10;28.70;71.90
52016;DHT22;38032;53.326;6.472;2022-07-12T14:54:36;28.70;71.70
52016;DHT22;38032;53.326;6.472;2022-07-12T14:57:02;28.60;70.70
52016;DHT22;38032;53.326;6.472;2022-07-12T14:59:28;28.60;70.10
52016;DHT22;38032;53.326;6.472;2022-07-12T15:01:54;28.50;69.90
52016;DHT22;38032;53.326;6.472;2022-07-12T15:04:21;28.40;71.70
52016;DHT22;38032;53.326;6.472;2022-07-12T15:06:48;28.40;71.80
52016;DHT22;38032;53.326;6.472;2022-07-12T15:09:13;28.30;71.50
52016;DHT22;38032;53.326;6.472;2022-07-12T15:11:39;28.30;71.10
52016;DHT22;38032;53.326;6.472;2022-07-12T15:14:05;28.20;71.30
52016;DHT22;38032;53.326;6.472;2022-07-12T15:16:31;28.20;70.80
52016;DHT22;38032;53.326;6.472;2022-07-12T15:18:57;28.10;70.00
52016;DHT22;38032;53.326;6.472;2022-07-12T15:21:24;28.00;70.30
52016;DHT22;38032;53.326;6.472;2022-07-12T15:23:50;28.00;70.30
52016;DHT22;38032;53.326;6.472;2022-07-12T15:26:16;28.00;69.80
52016;DHT22;38032;53.326;6.472;2022-07-12T15:28:50;27.80;70.00
52016;DHT22;38032;53.326;6.472;2022-07-12T15:31:17;27.80;70.60
52016;DHT22;38032;53.326;6.472;2022-07-12T15:33:42;27.70;71.40
52016;DHT22;38032;53.326;6.472;2022-07-12T15:36:09;27.70;72.60
52016;DHT22;38032;53.326;6.472;2022-07-12T15:38:35;27.60;74.10
52016;DHT22;38032;53.326;6.472;2022-07-12T15:41:01;27.50;75.50